sensor_id;sensor_type;location;lat;lon;timestamp;P1;durP1;ratioP1;P2;durP2;ratioP2
15281;SDS011;7742;44.320;19.820;2022-08-19T00:00:39;14.23;;;13.33;;
15281;SDS011;7742;44.320;19.820;2022-08-19T00:03:06;15.10;;;14.10;;
15281;SDS011;7742;44.320;19.820;2022-08-19T00:05:43;15.23;;;14.20;;
15281;SDS011;7742;44.320;19.820;2022-08-19T00:08:10;14.40;;;13.60;;
15281;SDS011;7742;44.320;19.820;2022-08-19T00:16:49;14.90;;;13.90;;
15281;SDS011;7742;44.320;19.820;2022-08-19T00:19:19;14.43;;;13.63;;
15281;SDS011;7742;44.320;19.820;2022-08-19T00:21:47;15.00;;;14.10;;
15281;SDS011;7742;44.320;19.820;2022-08-19T00:24:14;14.67;;;13.67;;
15281;SDS011;7742;44.320;19.820;2022-08-19T00:26:42;14.67;;;13.67;;
15281;SDS011;7742;44.320;19.820;2022-08-19T00:29:11;14.50;;;13.60;;
15281;SDS011;7742;44.320;19.820;2022-08-19T00:31:42;14.90;;;14.00;;
15281;SDS011;7742;44.320;19.820;2022-08-19T00:34:10;14.80;;;13.80;;
15281;SDS011;7742;44.320;19.820;2022-08-19T00:36:38;14.03;;;13.33;;
15281;SDS011;7742;44.320;19.820;2022-08-19T00:39:05;14.87;;;13.97;;
15281;SDS011;7742;44.320;19.820;2022-08-19T00:41:33;14.47;;;13.77;;
15281;SDS011;7742;44.320;19.820;2022-08-19T00:44:01;14.43;;;13.63;;
15281;SDS011;7742;44.320;19.820;2022-08-19T00:46:31;14.40;;;13.60;;
15281;SDS011;7742;44.320;19.820;2022-08-19T00:49:10;15.03;;;14.23;;
15281;SDS011;7742;44.320;19.820;2022-08-19T00:51:41;14.73;;;13.90;;
15281;SDS011;7742;44.320;19.820;2022-08-19T00:54:45;15.40;;;14.30;;
15281;SDS011;7742;44.320;19.820;2022-08-19T00:57:15;14.80;;;13.97;;
15281;SDS011;7742;44.320;19.820;2022-08-19T00:59:48;15.13;;;14.33;;
15281;SDS011;7742;44.320;19.820;2022-08-19T01:02:19;15.60;;;14.70;;
15281;SDS011;7742;44.320;19.820;2022-08-19T01:04:49;14.70;;;13.93;;
15281;SDS011;7742;44.320;19.820;2022-08-19T01:07:17;14.70;;;13.93;;
15281;SDS011;7742;44.320;19.820;2022-08-19T01:09:46;15.73;;;14.73;;
15281;SDS011;7742;44.320;19.820;2022-08-19T01:12:14;15.50;;;14.60;;
15281;SDS011;7742;44.320;19.820;2022-08-19T01:14:42;14.80;;;14.00;;
15281;SDS011;7742;44.320;19.820;2022-08-19T01:17:10;15.30;;;14.40;;
15281;SDS011;7742;44.320;19.820;2022-08-19T01:19:45;15.20;;;14.30;;
15281;SDS011;7742;44.320;19.820;2022-08-19T01:22:19;16.10;;;15.20;;
15281;SDS011;7742;44.320;19.820;2022-08-19T01:24:54;15.97;;;14.87;;
15281;SDS011;7742;44.320;19.820;2022-08-19T01:27:24;15.17;;;14.40;;
15281;SDS011;7742;44.320;19.820;2022-08-19T01:30:05;15.40;;;14.47;;
15281;SDS011;7742;44.320;19.820;2022-08-19T01:32:34;15.20;;;14.50;;
15281;SDS011;7742;44.320;19.820;2022-08-19T01:35:02;15.50;;;14.37;;
15281;SDS011;7742;44.320;19.820;2022-08-19T01:37:40;15.53;;;14.70;;
15281;SDS011;7742;44.320;19.820;2022-08-19T01:40:10;15.67;;;14.73;;
15281;SDS011;7742;44.320;19.820;2022-08-19T01:42:38;15.50;;;14.70;;
15281;SDS011;7742;44.320;19.820;2022-08-19T01:45:07;15.00;;;14.23;;
15281;SDS011;7742;44.320;19.820;2022-08-19T01:47:35;14.70;;;14.00;;
15281;SDS011;7742;44.320;19.820;2022-08-19T01:50:03;14.60;;;13.90;;
15281;SDS011;7742;44.320;19.820;2022-08-19T01:52:35;14.80;;;14.10;;
15281;SDS011;7742;44.320;19.820;2022-08-19T01:55:04;15.30;;;14.50;;
15281;SDS011;7742;44.320;19.820;2022-08-19T01:57:33;15.50;;;14.57;;
15281;SDS011;7742;44.320;19.820;2022-08-19T02:00:01;15.53;;;14.63;;
15281;SDS011;7742;44.320;19.820;2022-08-19T02:02:30;16.13;;;15.00;;
15281;SDS011;7742;44.320;19.820;2022-08-19T02:04:58;15.93;;;14.93;;
15281;SDS011;7742;44.320;19.820;2022-08-19T02:07:25;15.80;;;15.00;;
15281;SDS011;7742;44.320;19.820;2022-08-19T02:09:55;15.37;;;14.50;;
15281;SDS011;7742;44.320;19.820;2022-08-19T02:12:22;15.80;;;14.87;;
15281;SDS011;7742;44.320;19.820;2022-08-19T02:14:50;16.63;;;15.40;;
15281;SDS011;7742;44.320;19.820;2022-08-19T02:17:17;15.67;;;14.87;;
15281;SDS011;7742;44.320;19.820;2022-08-19T02:19:45;16.40;;;15.30;;
15281;SDS011;7742;44.320;19.820;2022-08-19T02:22:14;16.37;;;15.33;;
15281;SDS011;7742;44.320;19.820;2022-08-19T02:24:41;15.37;;;14.60;;
15281;SDS011;7742;44.320;19.820;2022-08-19T02:27:10;15.90;;;15.03;;
15281;SDS011;7742;44.320;19.820;2022-08-19T02:29:37;15.80;;;15.00;;
15281;SDS011;7742;44.320;19.820;2022-08-19T02:32:07;16.00;;;15.00;;
15281;SDS011;7742;44.320;19.820;2022-08-19T02:34:34;16.23;;;15.10;;
15281;SDS011;7742;44.320;19.820;2022-08-19T02:37:10;16.53;;;15.47;;
15281;SDS011;7742;44.320;19.820;2022-08-19T02:39:58;15.97;;;14.97;;
15281;SDS011;7742;44.320;19.820;2022-08-19T02:42:26;15.70;;;14.83;;
15281;SDS011;7742;44.320;19.820;2022-08-19T02:44:55;15.23;;;14.43;;
15281;SDS011;7742;44.320;19.820;2022-08-19T02:47:22;15.67;;;14.87;;
15281;SDS011;7742;44.320;19.820;2022-08-19T02:49:49;15.50;;;14.50;;
15281;SDS011;7742;44.320;19.820;2022-08-19T02:52:17;16.07;;;15.07;;
15281;SDS011;7742;44.320;19.820;2022-08-19T02:54:44;16.40;;;15.20;;
15281;SDS011;7742;44.320;19.820;2022-08-19T02:57:22;15.73;;;14.70;;
15281;SDS011;7742;44.320;19.820;2022-08-19T02:59:53;15.77;;;14.80;;
15281;SDS011;7742;44.320;19.820;2022-08-19T03:02:20;15.73;;;14.83;;
15281;SDS011;7742;44.320;19.820;2022-08-19T03:08:08;16.30;;;15.23;;
15281;SDS011;7742;44.320;19.820;2022-08-19T03:10:43;15.60;;;14.70;;
15281;SDS011;7742;44.320;19.820;2022-08-19T03:13:13;15.53;;;14.73;;
15281;SDS011;7742;44.320;19.820;2022-08-19T03:15:44;15.60;;;14.80;;
15281;SDS011;7742;44.320;19.820;2022-08-19T03:18:13;16.40;;;15.50;;
15281;SDS011;7742;44.320;19.820;2022-08-19T03:20:42;15.60;;;14.70;;
15281;SDS011;7742;44.320;19.820;2022-08-19T03:23:40;16.13;;;15.10;;
15281;SDS011;7742;44.320;19.820;2022-08-19T03:26:41;14.77;;;14.07;;
15281;SDS011;7742;44.320;19.820;2022-08-19T03:29:10;15.37;;;14.57;;
15281;SDS011;7742;44.320;19.820;2022-08-19T03:34:54;15.23;;;14.43;;
15281;SDS011;7742;44.320;19.820;2022-08-19T03:37:22;15.40;;;14.60;;
15281;SDS011;7742;44.320;19.820;2022-08-19T03:39:49;15.77;;;14.77;;
15281;SDS011;7742;44.320;19.820;2022-08-19T03:45:35;16.93;;;15.83;;
15281;SDS011;7742;44.320;19.820;2022-08-19T03:48:02;16.33;;;15.33;;
15281;SDS011;7742;44.320;19.820;2022-08-19T03:50:31;16.23;;;15.17;;
15281;SDS011;7742;44.320;19.820;2022-08-19T03:52:58;16.40;;;15.40;;
15281;SDS011;7742;44.320;19.820;2022-08-19T03:55:26;16.57;;;15.47;;
15281;SDS011;7742;44.320;19.820;2022-08-19T03:57:53;15.60;;;14.70;;
15281;SDS011;7742;44.320;19.820;2022-08-19T04:00:21;16.73;;;15.73;;
15281;SDS011;7742;44.320;19.820;2022-08-19T04:02:49;16.17;;;15.27;;
15281;SDS011;7742;44.320;19.820;2022-08-19T04:05:16;16.17;;;15.23;;
15281;SDS011;7742;44.320;19.820;2022-08-19T04:07:45;15.77;;;14.77;;
15281;SDS011;7742;44.320;19.820;2022-08-19T04:10:12;15.17;;;14.37;;
15281;SDS011;7742;44.320;19.820;2022-08-19T04:12:40;15.43;;;14.53;;
15281;SDS011;7742;44.320;19.820;2022-08-19T04:15:07;15.93;;;15.03;;
15281;SDS011;7742;44.320;19.820;2022-08-19T04:17:35;15.10;;;14.20;;
15281;SDS011;7742;44.320;19.820;2022-08-19T04:20:03;14.00;;;13.20;;
15281;SDS011;7742;44.320;19.820;2022-08-19T04:22:31;14.30;;;13.50;;
15281;SDS011;7742;44.320;19.820;2022-08-19T04:25:00;15.13;;;14.10;;
15281;SDS011;7742;44.320;19.820;2022-08-19T04:27:27;14.97;;;14.17;;
15281;SDS011;7742;44.320;19.820;2022-08-19T04:29:54;15.73;;;14.80;;
15281;SDS011;7742;44.320;19.820;2022-08-19T04:32:21;15.40;;;14.40;;
15281;SDS011;7742;44.320;19.820;2022-08-19T04:34:49;15.30;;;14.40;;
15281;SDS011;7742;44.320;19.820;2022-08-19T04:37:16;15.37;;;14.47;;
15281;SDS011;7742;44.320;19.820;2022-08-19T04:39:43;14.23;;;13.53;;
15281;SDS011;7742;44.320;19.820;2022-08-19T04:42:32;14.20;;;13.50;;
15281;SDS011;7742;44.320;19.820;2022-08-19T04:45:09;15.17;;;14.37;;
15281;SDS011;7742;44.320;19.820;2022-08-19T04:47:39;15.00;;;14.20;;
15281;SDS011;7742;44.320;19.820;2022-08-19T04:50:08;15.13;;;14.13;;
15281;SDS011;7742;44.320;19.820;2022-08-19T04:52:49;15.23;;;14.07;;
15281;SDS011;7742;44.320;19.820;2022-08-19T04:55:17;15.10;;;14.13;;
15281;SDS011;7742;44.320;19.820;2022-08-19T04:57:46;14.35;;;13.45;;
15281;SDS011;7742;44.320;19.820;2022-08-19T05:00:14;15.80;;;14.70;;
15281;SDS011;7742;44.320;19.820;2022-08-19T05:02:41;16.45;;;15.45;;
15281;SDS011;7742;44.320;19.820;2022-08-19T05:05:09;16.08;;;15.13;;
15281;SDS011;7742;44.320;19.820;2022-08-19T05:07:36;16.48;;;15.48;;
15281;SDS011;7742;44.320;19.820;2022-08-19T05:10:06;15.30;;;14.50;;
15281;SDS011;7742;44.320;19.820;2022-08-19T05:12:34;16.25;;;15.25;;
15281;SDS011;7742;44.320;19.820;2022-08-19T05:15:04;16.38;;;15.20;;
15281;SDS011;7742;44.320;19.820;2022-08-19T05:17:33;15.82;;;15.00;;
15281;SDS011;7742;44.320;19.820;2022-08-19T05:20:01;16.25;;;15.20;;
15281;SDS011;7742;44.320;19.820;2022-08-19T05:22:46;15.88;;;14.90;;
15281;SDS011;7742;44.320;19.820;2022-08-19T05:25:14;14.90;;;13.90;;
15281;SDS011;7742;44.320;19.820;2022-08-19T05:27:43;16.13;;;14.93;;
15281;SDS011;7742;44.320;19.820;2022-08-19T05:30:13;16.05;;;14.95;;
15281;SDS011;7742;44.320;19.820;2022-08-19T05:32:40;15.85;;;14.98;;
15281;SDS011;7742;44.320;19.820;2022-08-19T05:35:08;14.80;;;13.90;;
15281;SDS011;7742;44.320;19.820;2022-08-19T05:37:36;19.25;;;18.15;;
15281;SDS011;7742;44.320;19.820;2022-08-19T05:40:05;16.83;;;15.93;;
15281;SDS011;7742;44.320;19.820;2022-08-19T05:42:33;14.48;;;13.75;;
15281;SDS011;7742;44.320;19.820;2022-08-19T05:45:01;14.20;;;13.40;;
15281;SDS011;7742;44.320;19.820;2022-08-19T05:47:30;14.68;;;13.77;;
15281;SDS011;7742;44.320;19.820;2022-08-19T05:49:57;14.88;;;13.60;;
15281;SDS011;7742;44.320;19.820;2022-08-19T05:52:26;14.07;;;13.30;;
15281;SDS011;7742;44.320;19.820;2022-08-19T05:54:54;14.10;;;13.20;;
15281;SDS011;7742;44.320;19.820;2022-08-19T05:57:21;14.50;;;13.50;;
15281;SDS011;7742;44.320;19.820;2022-08-19T05:59:49;14.35;;;13.63;;
15281;SDS011;7742;44.320;19.820;2022-08-19T06:02:17;14.93;;;13.95;;
15281;SDS011;7742;44.320;19.820;2022-08-19T06:04:46;14.40;;;13.68;;
15281;SDS011;7742;44.320;19.820;2022-08-19T06:07:13;14.80;;;13.85;;
15281;SDS011;7742;44.320;19.820;2022-08-19T06:09:42;14.95;;;14.02;;
15281;SDS011;7742;44.320;19.820;2022-08-19T06:12:09;15.45;;;14.30;;
15281;SDS011;7742;44.320;19.820;2022-08-19T06:14:36;15.48;;;14.48;;
15281;SDS011;7742;44.320;19.820;2022-08-19T06:17:04;14.80;;;13.90;;
15281;SDS011;7742;44.320;19.820;2022-08-19T06:19:31;14.20;;;13.38;;
15281;SDS011;7742;44.320;19.820;2022-08-19T06:22:00;14.20;;;13.30;;
15281;SDS011;7742;44.320;19.820;2022-08-19T06:24:28;15.10;;;14.30;;
15281;SDS011;7742;44.320;19.820;2022-08-19T06:26:57;15.40;;;14.40;;
15281;SDS011;7742;44.320;19.820;2022-08-19T06:29:26;15.18;;;14.10;;
15281;SDS011;7742;44.320;19.820;2022-08-19T06:31:55;13.75;;;13.05;;
15281;SDS011;7742;44.320;19.820;2022-08-19T06:34:25;14.23;;;13.48;;
15281;SDS011;7742;44.320;19.820;2022-08-19T06:36:53;14.13;;;13.23;;
15281;SDS011;7742;44.320;19.820;2022-08-19T06:39:23;14.40;;;13.50;;
15281;SDS011;7742;44.320;19.820;2022-08-19T06:41:51;14.85;;;13.77;;
15281;SDS011;7742;44.320;19.820;2022-08-19T06:44:20;15.80;;;14.55;;
15281;SDS011;7742;44.320;19.820;2022-08-19T06:46:50;15.65;;;14.25;;
15281;SDS011;7742;44.320;19.820;2022-08-19T06:49:18;15.77;;;14.68;;
15281;SDS011;7742;44.320;19.820;2022-08-19T06:51:45;15.30;;;14.30;;
15281;SDS011;7742;44.320;19.820;2022-08-19T06:54:14;15.70;;;14.80;;
15281;SDS011;7742;44.320;19.820;2022-08-19T06:56:43;15.48;;;14.48;;
15281;SDS011;7742;44.320;19.820;2022-08-19T06:59:12;14.98;;;13.98;;
15281;SDS011;7742;44.320;19.820;2022-08-19T07:01:41;15.60;;;14.50;;
15281;SDS011;7742;44.320;19.820;2022-08-19T07:04:12;15.48;;;14.38;;
15281;SDS011;7742;44.320;19.820;2022-08-19T07:06:40;14.95;;;13.77;;
15281;SDS011;7742;44.320;19.820;2022-08-19T07:09:08;14.77;;;13.75;;
15281;SDS011;7742;44.320;19.820;2022-08-19T07:11:36;15.70;;;14.38;;
15281;SDS011;7742;44.320;19.820;2022-08-19T07:14:05;16.15;;;14.77;;
15281;SDS011;7742;44.320;19.820;2022-08-19T07:16:32;15.73;;;14.50;;
15281;SDS011;7742;44.320;19.820;2022-08-19T07:19:01;15.85;;;14.85;;
15281;SDS011;7742;44.320;19.820;2022-08-19T07:21:28;16.40;;;15.00;;
15281;SDS011;7742;44.320;19.820;2022-08-19T07:23:56;15.90;;;14.70;;
15281;SDS011;7742;44.320;19.820;2022-08-19T07:26:24;15.48;;;14.38;;
15281;SDS011;7742;44.320;19.820;2022-08-19T07:28:52;15.15;;;14.32;;
15281;SDS011;7742;44.320;19.820;2022-08-19T07:31:22;14.77;;;13.65;;
15281;SDS011;7742;44.320;19.820;2022-08-19T07:33:51;15.95;;;14.65;;
15281;SDS011;7742;44.320;19.820;2022-08-19T07:36:29;15.38;;;14.27;;
15281;SDS011;7742;44.320;19.820;2022-08-19T07:39:01;15.38;;;14.20;;
15281;SDS011;7742;44.320;19.820;2022-08-19T07:41:31;15.32;;;14.40;;
15281;SDS011;7742;44.320;19.820;2022-08-19T07:43:59;15.30;;;14.20;;
15281;SDS011;7742;44.320;19.820;2022-08-19T07:46:30;15.63;;;14.43;;
15281;SDS011;7742;44.320;19.820;2022-08-19T07:48:59;15.35;;;14.27;;
15281;SDS011;7742;44.320;19.820;2022-08-19T07:51:27;15.95;;;14.63;;
15281;SDS011;7742;44.320;19.820;2022-08-19T07:53:54;16.30;;;15.00;;
15281;SDS011;7742;44.320;19.820;2022-08-19T07:56:22;16.15;;;14.82;;
15281;SDS011;7742;44.320;19.820;2022-08-19T07:58:50;17.23;;;15.52;;
15281;SDS011;7742;44.320;19.820;2022-08-19T08:01:19;16.65;;;15.32;;
15281;SDS011;7742;44.320;19.820;2022-08-19T08:03:50;15.88;;;14.70;;
15281;SDS011;7742;44.320;19.820;2022-08-19T08:06:36;16.30;;;14.80;;
15281;SDS011;7742;44.320;19.820;2022-08-19T08:09:21;15.90;;;14.85;;
15281;SDS011;7742;44.320;19.820;2022-08-19T08:11:51;15.60;;;14.30;;
15281;SDS011;7742;44.320;19.820;2022-08-19T08:14:21;15.50;;;14.30;;
15281;SDS011;7742;44.320;19.820;2022-08-19T08:16:50;16.83;;;15.38;;
15281;SDS011;7742;44.320;19.820;2022-08-19T08:19:20;15.85;;;14.70;;
15281;SDS011;7742;44.320;19.820;2022-08-19T08:21:49;13.88;;;12.88;;
15281;SDS011;7742;44.320;19.820;2022-08-19T08:24:16;14.55;;;13.35;;
15281;SDS011;7742;44.320;19.820;2022-08-19T08:26:45;14.95;;;13.70;;
15281;SDS011;7742;44.320;19.820;2022-08-19T08:29:13;15.10;;;13.63;;
15281;SDS011;7742;44.320;19.820;2022-08-19T08:31:42;15.68;;;14.60;;
15281;SDS011;7742;44.320;19.820;2022-08-19T08:34:11;15.45;;;14.23;;
15281;SDS011;7742;44.320;19.820;2022-08-19T08:36:44;16.42;;;14.88;;
15281;SDS011;7742;44.320;19.820;2022-08-19T08:39:13;15.65;;;14.55;;
15281;SDS011;7742;44.320;19.820;2022-08-19T08:41:46;15.50;;;14.05;;
15281;SDS011;7742;44.320;19.820;2022-08-19T08:44:20;15.90;;;14.52;;
15281;SDS011;7742;44.320;19.820;2022-08-19T08:46:50;15.57;;;14.20;;
15281;SDS011;7742;44.320;19.820;2022-08-19T08:49:25;16.83;;;15.27;;
15281;SDS011;7742;44.320;19.820;2022-08-19T08:51:59;16.98;;;15.65;;
15281;SDS011;7742;44.320;19.820;2022-08-19T08:54:30;16.00;;;14.77;;
15281;SDS011;7742;44.320;19.820;2022-08-19T08:57:02;15.98;;;14.65;;
15281;SDS011;7742;44.320;19.820;2022-08-19T08:59:33;15.15;;;13.95;;
15281;SDS011;7742;44.320;19.820;2022-08-19T09:02:02;16.17;;;14.75;;
15281;SDS011;7742;44.320;19.820;2022-08-19T09:04:29;16.10;;;14.68;;
15281;SDS011;7742;44.320;19.820;2022-08-19T09:07:01;16.10;;;14.70;;
15281;SDS011;7742;44.320;19.820;2022-08-19T09:09:38;15.48;;;14.10;;
15281;SDS011;7742;44.320;19.820;2022-08-19T09:12:08;15.75;;;14.52;;
15281;SDS011;7742;44.320;19.820;2022-08-19T09:14:43;15.20;;;13.82;;
15281;SDS011;7742;44.320;19.820;2022-08-19T09:17:15;15.45;;;13.95;;
15281;SDS011;7742;44.320;19.820;2022-08-19T09:19:49;15.07;;;13.98;;
15281;SDS011;7742;44.320;19.820;2022-08-19T09:22:19;15.02;;;14.02;;
15281;SDS011;7742;44.320;19.820;2022-08-19T09:24:48;15.63;;;14.30;;
15281;SDS011;7742;44.320;19.820;2022-08-19T09:27:23;15.02;;;13.52;;
15281;SDS011;7742;44.320;19.820;2022-08-19T09:29:51;15.18;;;13.80;;
15281;SDS011;7742;44.320;19.820;2022-08-19T09:32:19;14.95;;;13.70;;
15281;SDS011;7742;44.320;19.820;2022-08-19T09:34:49;16.25;;;14.85;;
15281;SDS011;7742;44.320;19.820;2022-08-19T09:37:21;15.18;;;13.95;;
15281;SDS011;7742;44.320;19.820;2022-08-19T09:39:48;15.52;;;14.32;;
15281;SDS011;7742;44.320;19.820;2022-08-19T09:42:19;17.20;;;15.48;;
15281;SDS011;7742;44.320;19.820;2022-08-19T09:44:56;15.95;;;14.43;;
15281;SDS011;7742;44.320;19.820;2022-08-19T09:47:56;16.30;;;15.00;;
15281;SDS011;7742;44.320;19.820;2022-08-19T09:50:26;16.08;;;14.75;;
15281;SDS011;7742;44.320;19.820;2022-08-19T09:56:32;15.57;;;14.40;;
15281;SDS011;7742;44.320;19.820;2022-08-19T09:59:00;17.27;;;15.48;;
15281;SDS011;7742;44.320;19.820;2022-08-19T10:01:29;15.05;;;13.95;;
15281;SDS011;7742;44.320;19.820;2022-08-19T10:03:57;15.65;;;14.30;;
15281;SDS011;7742;44.320;19.820;2022-08-19T10:06:26;17.52;;;15.93;;
15281;SDS011;7742;44.320;19.820;2022-08-19T10:08:59;17.42;;;15.77;;
15281;SDS011;7742;44.320;19.820;2022-08-19T10:11:29;16.33;;;14.88;;
15281;SDS011;7742;44.320;19.820;2022-08-19T10:13:56;16.70;;;15.00;;
15281;SDS011;7742;44.320;19.820;2022-08-19T10:16:24;15.80;;;14.50;;
15281;SDS011;7742;44.320;19.820;2022-08-19T10:18:52;17.48;;;15.63;;
15281;SDS011;7742;44.320;19.820;2022-08-19T10:21:21;17.58;;;16.20;;
15281;SDS011;7742;44.320;19.820;2022-08-19T10:23:50;17.73;;;16.33;;
15281;SDS011;7742;44.320;19.820;2022-08-19T10:26:22;17.45;;;15.93;;
15281;SDS011;7742;44.320;19.820;2022-08-19T10:28:52;19.00;;;16.38;;
15281;SDS011;7742;44.320;19.820;2022-08-19T10:31:39;20.70;;;18.50;;
15281;SDS011;7742;44.320;19.820;2022-08-19T10:34:07;17.50;;;15.93;;
15281;SDS011;7742;44.320;19.820;2022-08-19T10:36:35;18.25;;;16.63;;
15281;SDS011;7742;44.320;19.820;2022-08-19T10:39:04;17.60;;;16.17;;
15281;SDS011;7742;44.320;19.820;2022-08-19T10:41:38;17.85;;;16.00;;
15281;SDS011;7742;44.320;19.820;2022-08-19T10:44:09;20.67;;;18.75;;
15281;SDS011;7742;44.320;19.820;2022-08-19T10:46:38;19.75;;;18.05;;
15281;SDS011;7742;44.320;19.820;2022-08-19T10:49:08;19.75;;;18.17;;
15281;SDS011;7742;44.320;19.820;2022-08-19T10:51:37;19.92;;;18.00;;
15281;SDS011;7742;44.320;19.820;2022-08-19T10:54:22;19.73;;;18.15;;
15281;SDS011;7742;44.320;19.820;2022-08-19T10:57:11;18.27;;;17.02;;
15281;SDS011;7742;44.320;19.820;2022-08-19T10:59:37;18.25;;;16.73;;
15281;SDS011;7742;44.320;19.820;2022-08-19T11:02:06;19.33;;;17.45;;
15281;SDS011;7742;44.320;19.820;2022-08-19T11:04:35;18.60;;;17.00;;
15281;SDS011;7742;44.320;19.820;2022-08-19T11:07:02;18.55;;;16.95;;
15281;SDS011;7742;44.320;19.820;2022-08-19T11:09:31;19.52;;;17.88;;
15281;SDS011;7742;44.320;19.820;2022-08-19T11:11:58;19.45;;;17.73;;
15281;SDS011;7742;44.320;19.820;2022-08-19T11:14:27;17.98;;;16.08;;
15281;SDS011;7742;44.320;19.820;2022-08-19T11:16:56;18.67;;;16.80;;
15281;SDS011;7742;44.320;19.820;2022-08-19T11:19:23;17.48;;;15.85;;
15281;SDS011;7742;44.320;19.820;2022-08-19T11:21:51;22.20;;;16.10;;
15281;SDS011;7742;44.320;19.820;2022-08-19T11:24:20;17.52;;;15.90;;
15281;SDS011;7742;44.320;19.820;2022-08-19T11:26:50;18.02;;;15.80;;
15281;SDS011;7742;44.320;19.820;2022-08-19T11:29:22;17.20;;;15.60;;
15281;SDS011;7742;44.320;19.820;2022-08-19T11:31:54;17.52;;;16.20;;
15281;SDS011;7742;44.320;19.820;2022-08-19T11:34:22;17.42;;;15.85;;
15281;SDS011;7742;44.320;19.820;2022-08-19T11:36:53;18.35;;;16.35;;
15281;SDS011;7742;44.320;19.820;2022-08-19T11:39:23;17.75;;;16.15;;
15281;SDS011;7742;44.320;19.820;2022-08-19T11:41:51;18.02;;;16.20;;
15281;SDS011;7742;44.320;19.820;2022-08-19T11:44:18;18.73;;;16.13;;
15281;SDS011;7742;44.320;19.820;2022-08-19T11:46:46;19.70;;;16.38;;
15281;SDS011;7742;44.320;19.820;2022-08-19T11:49:15;18.85;;;16.63;;
15281;SDS011;7742;44.320;19.820;2022-08-19T11:51:44;17.85;;;16.00;;
15281;SDS011;7742;44.320;19.820;2022-08-19T11:54:12;17.55;;;15.95;;
15281;SDS011;7742;44.320;19.820;2022-08-19T11:56:42;17.58;;;15.95;;
15281;SDS011;7742;44.320;19.820;2022-08-19T11:59:11;17.48;;;15.95;;
15281;SDS011;7742;44.320;19.820;2022-08-19T12:01:38;20.15;;;16.02;;
15281;SDS011;7742;44.320;19.820;2022-08-19T12:04:07;18.38;;;16.58;;
15281;SDS011;7742;44.320;19.820;2022-08-19T12:06:37;17.98;;;16.13;;
15281;SDS011;7742;44.320;19.820;2022-08-19T12:09:06;17.92;;;16.08;;
15281;SDS011;7742;44.320;19.820;2022-08-19T12:11:35;17.30;;;15.68;;
15281;SDS011;7742;44.320;19.820;2022-08-19T12:14:03;17.80;;;16.15;;
15281;SDS011;7742;44.320;19.820;2022-08-19T12:16:31;17.88;;;15.98;;
15281;SDS011;7742;44.320;19.820;2022-08-19T12:18:58;17.30;;;15.85;;
15281;SDS011;7742;44.320;19.820;2022-08-19T12:21:29;17.67;;;16.15;;
15281;SDS011;7742;44.320;19.820;2022-08-19T12:23:59;17.20;;;15.93;;
15281;SDS011;7742;44.320;19.820;2022-08-19T12:26:28;17.92;;;16.10;;
15281;SDS011;7742;44.320;19.820;2022-08-19T12:28:56;17.30;;;15.70;;
15281;SDS011;7742;44.320;19.820;2022-08-19T12:31:25;17.83;;;16.27;;
15281;SDS011;7742;44.320;19.820;2022-08-19T12:33:53;18.33;;;16.33;;
15281;SDS011;7742;44.320;19.820;2022-08-19T12:36:21;18.73;;;16.73;;
15281;SDS011;7742;44.320;19.820;2022-08-19T12:38:49;18.83;;;16.83;;
15281;SDS011;7742;44.320;19.820;2022-08-19T12:41:18;18.20;;;16.63;;
15281;SDS011;7742;44.320;19.820;2022-08-19T12:43:47;18.45;;;16.67;;
15281;SDS011;7742;44.320;19.820;2022-08-19T12:46:15;18.48;;;17.00;;
15281;SDS011;7742;44.320;19.820;2022-08-19T12:48:47;18.83;;;17.02;;
15281;SDS011;7742;44.320;19.820;2022-08-19T12:51:15;21.38;;;16.95;;
15281;SDS011;7742;44.320;19.820;2022-08-19T12:53:44;19.23;;;17.25;;
15281;SDS011;7742;44.320;19.820;2022-08-19T12:56:12;19.52;;;17.48;;
15281;SDS011;7742;44.320;19.820;2022-08-19T12:58:42;20.65;;;17.20;;
15281;SDS011;7742;44.320;19.820;2022-08-19T13:01:10;21.90;;;18.23;;
15281;SDS011;7742;44.320;19.820;2022-08-19T13:03:39;21.67;;;19.48;;
15281;SDS011;7742;44.320;19.820;2022-08-19T13:06:06;25.08;;;18.00;;
15281;SDS011;7742;44.320;19.820;2022-08-19T13:08:34;19.15;;;17.20;;
15281;SDS011;7742;44.320;19.820;2022-08-19T13:11:09;20.25;;;18.20;;
15281;SDS011;7742;44.320;19.820;2022-08-19T13:13:37;20.85;;;18.35;;
15281;SDS011;7742;44.320;19.820;2022-08-19T13:16:08;21.00;;;18.30;;
15281;SDS011;7742;44.320;19.820;2022-08-19T13:18:36;23.35;;;18.38;;
15281;SDS011;7742;44.320;19.820;2022-08-19T13:21:08;20.85;;;18.17;;
15281;SDS011;7742;44.320;19.820;2022-08-19T13:23:36;19.45;;;17.67;;
15281;SDS011;7742;44.320;19.820;2022-08-19T13:26:06;22.02;;;18.38;;
15281;SDS011;7742;44.320;19.820;2022-08-19T13:28:36;20.83;;;18.63;;
15281;SDS011;7742;44.320;19.820;2022-08-19T13:31:24;20.80;;;18.70;;
15281;SDS011;7742;44.320;19.820;2022-08-19T13:34:10;20.23;;;18.10;;
15281;SDS011;7742;44.320;19.820;2022-08-19T13:36:41;23.88;;;18.38;;
15281;SDS011;7742;44.320;19.820;2022-08-19T13:39:08;20.85;;;18.67;;
15281;SDS011;7742;44.320;19.820;2022-08-19T13:41:42;22.45;;;18.88;;
15281;SDS011;7742;44.320;19.820;2022-08-19T13:44:13;22.00;;;19.50;;
15281;SDS011;7742;44.320;19.820;2022-08-19T13:46:50;20.40;;;18.48;;
15281;SDS011;7742;44.320;19.820;2022-08-19T13:49:18;21.38;;;19.13;;
15281;SDS011;7742;44.320;19.820;2022-08-19T13:51:48;20.92;;;18.70;;
15281;SDS011;7742;44.320;19.820;2022-08-19T13:54:18;20.65;;;18.40;;
15281;SDS011;7742;44.320;19.820;2022-08-19T13:56:46;21.05;;;18.92;;
15281;SDS011;7742;44.320;19.820;2022-08-19T13:59:14;21.92;;;18.80;;
15281;SDS011;7742;44.320;19.820;2022-08-19T14:01:43;20.75;;;18.60;;
15281;SDS011;7742;44.320;19.820;2022-08-19T14:04:11;21.13;;;19.02;;
15281;SDS011;7742;44.320;19.820;2022-08-19T14:06:40;20.80;;;18.90;;
15281;SDS011;7742;44.320;19.820;2022-08-19T14:09:07;21.38;;;19.38;;
15281;SDS011;7742;44.320;19.820;2022-08-19T14:11:37;23.00;;;18.80;;
15281;SDS011;7742;44.320;19.820;2022-08-19T14:14:04;23.35;;;20.50;;
15281;SDS011;7742;44.320;19.820;2022-08-19T14:16:33;21.30;;;19.42;;
15281;SDS011;7742;44.320;19.820;2022-08-19T14:19:00;21.52;;;19.50;;
15281;SDS011;7742;44.320;19.820;2022-08-19T14:21:35;25.35;;;19.80;;
15281;SDS011;7742;44.320;19.820;2022-08-19T14:24:11;20.98;;;19.02;;
15281;SDS011;7742;44.320;19.820;2022-08-19T14:26:42;20.92;;;18.60;;
15281;SDS011;7742;44.320;19.820;2022-08-19T14:29:11;19.63;;;17.88;;
15281;SDS011;7742;44.320;19.820;2022-08-19T14:31:39;20.50;;;18.58;;
15281;SDS011;7742;44.320;19.820;2022-08-19T14:34:10;21.23;;;19.20;;
15281;SDS011;7742;44.320;19.820;2022-08-19T14:36:49;20.55;;;18.52;;
15281;SDS011;7742;44.320;19.820;2022-08-19T14:39:35;23.10;;;19.20;;
15281;SDS011;7742;44.320;19.820;2022-08-19T14:42:07;20.95;;;18.98;;
15281;SDS011;7742;44.320;19.820;2022-08-19T14:44:38;21.42;;;19.05;;
15281;SDS011;7742;44.320;19.820;2022-08-19T14:47:16;21.45;;;19.50;;
15281;SDS011;7742;44.320;19.820;2022-08-19T14:49:50;21.15;;;19.30;;
15281;SDS011;7742;44.320;19.820;2022-08-19T14:52:20;21.17;;;19.27;;
15281;SDS011;7742;44.320;19.820;2022-08-19T14:54:53;21.88;;;19.60;;
15281;SDS011;7742;44.320;19.820;2022-08-19T14:57:22;22.40;;;20.45;;